Stony Plain, Canada
Current Conditions -  °F | °C
As of 6:00 PM on Sunday 21 Dec 2014 (Local Time) from CWSE Reporting Station
Light Snow Light Snow  
Wind Chill: 25°   Ceiling: 700
Heat Index: 29°   Visibility: 7mi
Dew Point: 29°   Wind: 5mph
Humidity: 99%   Direction: 240°WSW
Pressure: 29.52"   Gusts: NA
Location:  53.53°N, 114.01°W
Report Text: CWSE 220100Z 24004KT 7SM -SN OVC007 M01/M02 A2952 RMK SLP036 T10141016 WSI/SWOB
Loading
Personal Weather Stations






























Interactive Weather Map New forecast layout! Learn more

10-Day Weather Forecast

Advertisements
Track Severe Weather on mobile